sensor_id;sensor_type;location;lat;lon;timestamp;temperature;humidity
33741;DHT22;20065;48.380;10.892;2022-09-17T00:01:51;11.10;99.90
33741;DHT22;20065;48.380;10.892;2022-09-17T00:04:38;10.90;99.90
33741;DHT22;20065;48.380;10.892;2022-09-17T00:07:24;11.00;99.90
33741;DHT22;20065;48.380;10.892;2022-09-17T00:10:11;10.90;99.90
33741;DHT22;20065;48.380;10.892;2022-09-17T00:12:57;10.70;99.90
33741;DHT22;20065;48.380;10.892;2022-09-17T00:15:44;10.80;99.90
33741;DHT22;20065;48.380;10.892;2022-09-17T00:18:31;10.70;99.90
33741;DHT22;20065;48.380;10.892;2022-09-17T00:21:19;10.70;99.90
33741;DHT22;20065;48.380;10.892;2022-09-17T00:24:06;10.80;99.90
33741;DHT22;20065;48.380;10.892;2022-09-17T00:26:53;10.80;99.90
33741;DHT22;20065;48.380;10.892;2022-09-17T00:29:39;10.90;99.90
33741;DHT22;20065;48.380;10.892;2022-09-17T00:32:26;10.70;99.90
33741;DHT22;20065;48.380;10.892;2022-09-17T00:35:12;10.70;99.90
33741;DHT22;20065;48.380;10.892;2022-09-17T00:37:58;10.90;99.90
33741;DHT22;20065;48.380;10.892;2022-09-17T00:40:44;10.80;99.90
33741;DHT22;20065;48.380;10.892;2022-09-17T00:43:45;10.70;99.90
33741;DHT22;20065;48.380;10.892;2022-09-17T00:46:39;10.70;99.90
33741;DHT22;20065;48.380;10.892;2022-09-17T00:49:29;10.60;99.90
33741;DHT22;20065;48.380;10.892;2022-09-17T00:52:43;10.50;99.90
33741;DHT22;20065;48.380;10.892;2022-09-17T00:55:42;10.60;99.90
33741;DHT22;20065;48.380;10.892;2022-09-17T00:58:34;10.60;99.90
33741;DHT22;20065;48.380;10.892;2022-09-17T01:01:21;10.70;99.90
33741;DHT22;20065;48.380;10.892;2022-09-17T01:04:18;10.70;99.90
33741;DHT22;20065;48.380;10.892;2022-09-17T01:16:18;10.60;99.90
33741;DHT22;20065;48.380;10.892;2022-09-17T01:23:11;10.80;99.90
33741;DHT22;20065;48.380;10.892;2022-09-17T01:32:21;10.90;99.90
33741;DHT22;20065;48.380;10.892;2022-09-17T01:38:14;10.30;99.90
33741;DHT22;20065;48.380;10.892;2022-09-17T01:41:31;10.30;99.90
33741;DHT22;20065;48.380;10.892;2022-09-17T01:47:28;10.30;99.90
33741;DHT22;20065;48.380;10.892;2022-09-17T01:50:25;10.30;99.90
33741;DHT22;20065;48.380;10.892;2022-09-17T01:53:15;10.30;99.90
33741;DHT22;20065;48.380;10.892;2022-09-17T01:56:03;10.40;99.90
33741;DHT22;20065;48.380;10.892;2022-09-17T01:59:19;10.50;99.90
33741;DHT22;20065;48.380;10.892;2022-09-17T02:02:25;10.40;99.90
33741;DHT22;20065;48.380;10.892;2022-09-17T02:05:28;10.60;99.90
33741;DHT22;20065;48.380;10.892;2022-09-17T02:08:21;10.60;99.90
33741;DHT22;20065;48.380;10.892;2022-09-17T02:11:13;10.50;99.90
33741;DHT22;20065;48.380;10.892;2022-09-17T02:14:08;10.40;99.90
33741;DHT22;20065;48.380;10.892;2022-09-17T02:17:07;10.40;99.90
33741;DHT22;20065;48.380;10.892;2022-09-17T02:19:55;10.40;99.90
33741;DHT22;20065;48.380;10.892;2022-09-17T02:22:47;10.60;99.90
33741;DHT22;20065;48.380;10.892;2022-09-17T02:25:46;10.60;99.90
33741;DHT22;20065;48.380;10.892;2022-09-17T02:31:22;10.50;99.90
33741;DHT22;20065;48.380;10.892;2022-09-17T02:34:09;10.30;99.90
33741;DHT22;20065;48.380;10.892;2022-09-17T02:36:56;10.10;99.90
33741;DHT22;20065;48.380;10.892;2022-09-17T02:39:46;9.70;99.90
33741;DHT22;20065;48.380;10.892;2022-09-17T03:02:52;9.90;99.90
33741;DHT22;20065;48.380;10.892;2022-09-17T03:05:41;9.90;99.90
33741;DHT22;20065;48.380;10.892;2022-09-17T03:08:32;10.00;99.90
33741;DHT22;20065;48.380;10.892;2022-09-17T03:11:19;10.10;99.90
33741;DHT22;20065;48.380;10.892;2022-09-17T03:14:05;10.00;99.90
33741;DHT22;20065;48.380;10.892;2022-09-17T03:16:52;10.10;99.90
33741;DHT22;20065;48.380;10.892;2022-09-17T03:19:38;10.10;99.90
33741;DHT22;20065;48.380;10.892;2022-09-17T03:22:24;10.10;99.90
33741;DHT22;20065;48.380;10.892;2022-09-17T03:25:10;9.90;99.90
33741;DHT22;20065;48.380;10.892;2022-09-17T03:27:56;10.00;99.90
33741;DHT22;20065;48.380;10.892;2022-09-17T03:30:43;9.80;99.90
33741;DHT22;20065;48.380;10.892;2022-09-17T03:33:30;9.60;99.90
33741;DHT22;20065;48.380;10.892;2022-09-17T03:36:16;9.80;99.90
33741;DHT22;20065;48.380;10.892;2022-09-17T03:39:03;10.00;99.90
33741;DHT22;20065;48.380;10.892;2022-09-17T03:41:49;9.80;99.90
33741;DHT22;20065;48.380;10.892;2022-09-17T03:44:36;9.80;99.90
33741;DHT22;20065;48.380;10.892;2022-09-17T03:47:22;9.60;99.90
33741;DHT22;20065;48.380;10.892;2022-09-17T03:50:08;9.60;99.90
33741;DHT22;20065;48.380;10.892;2022-09-17T03:52:54;9.60;99.90
33741;DHT22;20065;48.380;10.892;2022-09-17T03:55:40;9.60;99.90
33741;DHT22;20065;48.380;10.892;2022-09-17T03:58:28;9.50;99.90
33741;DHT22;20065;48.380;10.892;2022-09-17T04:01:14;9.50;99.90
33741;DHT22;20065;48.380;10.892;2022-09-17T04:04:00;9.50;99.90
33741;DHT22;20065;48.380;10.892;2022-09-17T04:06:47;9.40;99.90
33741;DHT22;20065;48.380;10.892;2022-09-17T04:09:33;9.40;99.90
33741;DHT22;20065;48.380;10.892;2022-09-17T04:12:19;9.30;99.90
33741;DHT22;20065;48.380;10.892;2022-09-17T04:15:06;9.20;99.90
33741;DHT22;20065;48.380;10.892;2022-09-17T04:17:56;9.30;99.90
33741;DHT22;20065;48.380;10.892;2022-09-17T04:20:42;9.30;99.90
33741;DHT22;20065;48.380;10.892;2022-09-17T04:23:31;9.50;99.90
33741;DHT22;20065;48.380;10.892;2022-09-17T04:26:18;9.40;99.90
33741;DHT22;20065;48.380;10.892;2022-09-17T04:29:04;9.30;99.90
33741;DHT22;20065;48.380;10.892;2022-09-17T04:31:51;9.30;99.90
33741;DHT22;20065;48.380;10.892;2022-09-17T04:34:37;9.40;99.90
33741;DHT22;20065;48.380;10.892;2022-09-17T04:37:23;9.30;99.90
33741;DHT22;20065;48.380;10.892;2022-09-17T04:40:10;9.30;99.90
33741;DHT22;20065;48.380;10.892;2022-09-17T04:42:58;9.40;99.90
33741;DHT22;20065;48.380;10.892;2022-09-17T04:45:45;9.60;99.90
33741;DHT22;20065;48.380;10.892;2022-09-17T04:48:32;9.50;99.90
33741;DHT22;20065;48.380;10.892;2022-09-17T04:51:18;9.50;99.90
33741;DHT22;20065;48.380;10.892;2022-09-17T04:54:04;9.40;99.90
33741;DHT22;20065;48.380;10.892;2022-09-17T04:56:50;9.60;99.90
33741;DHT22;20065;48.380;10.892;2022-09-17T04:59:36;9.50;99.90
33741;DHT22;20065;48.380;10.892;2022-09-17T05:02:22;9.40;99.90
33741;DHT22;20065;48.380;10.892;2022-09-17T05:05:09;8.40;99.90
33741;DHT22;20065;48.380;10.892;2022-09-17T05:07:55;9.30;99.90
33741;DHT22;20065;48.380;10.892;2022-09-17T05:10:41;9.30;99.90
33741;DHT22;20065;48.380;10.892;2022-09-17T05:13:27;9.40;99.90
33741;DHT22;20065;48.380;10.892;2022-09-17T05:16:13;9.40;99.90
33741;DHT22;20065;48.380;10.892;2022-09-17T05:18:59;9.40;99.90
33741;DHT22;20065;48.380;10.892;2022-09-17T05:21:45;9.40;99.90
33741;DHT22;20065;48.380;10.892;2022-09-17T05:24:31;9.50;99.90
33741;DHT22;20065;48.380;10.892;2022-09-17T05:27:18;9.40;99.90
33741;DHT22;20065;48.380;10.892;2022-09-17T05:30:05;9.40;99.90
33741;DHT22;20065;48.380;10.892;2022-09-17T05:33:02;9.60;99.90
33741;DHT22;20065;48.380;10.892;2022-09-17T05:35:49;9.40;99.90
33741;DHT22;20065;48.380;10.892;2022-09-17T05:38:35;9.20;99.90
33741;DHT22;20065;48.380;10.892;2022-09-17T05:41:21;9.20;99.90
33741;DHT22;20065;48.380;10.892;2022-09-17T05:44:07;9.30;99.90
33741;DHT22;20065;48.380;10.892;2022-09-17T05:46:53;9.30;99.90
33741;DHT22;20065;48.380;10.892;2022-09-17T05:49:39;9.30;99.90
33741;DHT22;20065;48.380;10.892;2022-09-17T05:52:26;9.20;99.90
33741;DHT22;20065;48.380;10.892;2022-09-17T05:55:13;9.40;99.90
33741;DHT22;20065;48.380;10.892;2022-09-17T05:58:00;9.40;99.90
33741;DHT22;20065;48.380;10.892;2022-09-17T06:00:53;9.60;99.90
33741;DHT22;20065;48.380;10.892;2022-09-17T06:03:39;9.70;99.90
33741;DHT22;20065;48.380;10.892;2022-09-17T06:06:27;9.60;99.90
33741;DHT22;20065;48.380;10.892;2022-09-17T06:09:14;9.50;99.90
33741;DHT22;20065;48.380;10.892;2022-09-17T06:12:01;9.40;99.90
33741;DHT22;20065;48.380;10.892;2022-09-17T06:14:47;9.30;99.90
33741;DHT22;20065;48.380;10.892;2022-09-17T06:17:34;9.40;99.90
33741;DHT22;20065;48.380;10.892;2022-09-17T06:20:21;9.40;99.90
33741;DHT22;20065;48.380;10.892;2022-09-17T06:23:07;9.50;99.90
33741;DHT22;20065;48.380;10.892;2022-09-17T06:25:55;9.50;99.90
33741;DHT22;20065;48.380;10.892;2022-09-17T06:28:41;9.50;99.90
33741;DHT22;20065;48.380;10.892;2022-09-17T06:31:28;9.40;99.90
33741;DHT22;20065;48.380;10.892;2022-09-17T06:34:14;9.40;99.90
33741;DHT22;20065;48.380;10.892;2022-09-17T06:37:00;9.50;99.90
33741;DHT22;20065;48.380;10.892;2022-09-17T06:39:46;9.50;99.90
33741;DHT22;20065;48.380;10.892;2022-09-17T06:42:32;9.50;99.90
33741;DHT22;20065;48.380;10.892;2022-09-17T06:45:18;9.60;99.90
33741;DHT22;20065;48.380;10.892;2022-09-17T06:48:05;9.50;99.90
33741;DHT22;20065;48.380;10.892;2022-09-17T06:50:51;9.70;99.90
33741;DHT22;20065;48.380;10.892;2022-09-17T06:53:39;9.80;99.90
33741;DHT22;20065;48.380;10.892;2022-09-17T06:56:26;10.00;99.90
33741;DHT22;20065;48.380;10.892;2022-09-17T06:59:12;9.70;99.90
33741;DHT22;20065;48.380;10.892;2022-09-17T07:01:58;9.70;99.90
33741;DHT22;20065;48.380;10.892;2022-09-17T07:04:45;9.70;99.90
33741;DHT22;20065;48.380;10.892;2022-09-17T07:07:31;9.60;99.90
33741;DHT22;20065;48.380;10.892;2022-09-17T07:10:17;9.60;99.90
33741;DHT22;20065;48.380;10.892;2022-09-17T07:13:04;9.70;99.90
33741;DHT22;20065;48.380;10.892;2022-09-17T07:15:58;9.80;99.90
33741;DHT22;20065;48.380;10.892;2022-09-17T07:18:45;9.80;99.90
33741;DHT22;20065;48.380;10.892;2022-09-17T07:21:31;10.00;99.90
33741;DHT22;20065;48.380;10.892;2022-09-17T07:24:17;10.00;99.90
33741;DHT22;20065;48.380;10.892;2022-09-17T07:27:04;10.00;99.90
33741;DHT22;20065;48.380;10.892;2022-09-17T07:29:50;9.80;99.90
33741;DHT22;20065;48.380;10.892;2022-09-17T07:32:36;9.80;99.90
33741;DHT22;20065;48.380;10.892;2022-09-17T07:35:22;9.70;99.90
33741;DHT22;20065;48.380;10.892;2022-09-17T07:38:08;9.80;99.90
33741;DHT22;20065;48.380;10.892;2022-09-17T07:41:00;9.90;99.90
33741;DHT22;20065;48.380;10.892;2022-09-17T07:43:46;10.10;99.90
33741;DHT22;20065;48.380;10.892;2022-09-17T07:46:32;10.10;99.90
33741;DHT22;20065;48.380;10.892;2022-09-17T07:49:18;10.00;99.90
33741;DHT22;20065;48.380;10.892;2022-09-17T07:52:05;10.10;99.90
33741;DHT22;20065;48.380;10.892;2022-09-17T07:54:51;10.10;99.90
33741;DHT22;20065;48.380;10.892;2022-09-17T07:57:37;10.20;99.90
33741;DHT22;20065;48.380;10.892;2022-09-17T08:00:23;10.10;99.90
33741;DHT22;20065;48.380;10.892;2022-09-17T08:03:10;10.10;99.90
33741;DHT22;20065;48.380;10.892;2022-09-17T08:06:07;10.20;99.90
33741;DHT22;20065;48.380;10.892;2022-09-17T08:08:58;10.30;99.90
33741;DHT22;20065;48.380;10.892;2022-09-17T08:11:47;10.50;99.90
33741;DHT22;20065;48.380;10.892;2022-09-17T08:14:33;10.30;99.90
33741;DHT22;20065;48.380;10.892;2022-09-17T08:17:19;10.30;99.90
33741;DHT22;20065;48.380;10.892;2022-09-17T08:20:06;10.50;99.90
33741;DHT22;20065;48.380;10.892;2022-09-17T08:22:59;10.90;99.90
33741;DHT22;20065;48.380;10.892;2022-09-17T08:25:57;10.80;99.90
33741;DHT22;20065;48.380;10.892;2022-09-17T08:28:45;10.80;99.90
33741;DHT22;20065;48.380;10.892;2022-09-17T08:31:32;10.70;99.90
33741;DHT22;20065;48.380;10.892;2022-09-17T08:34:18;11.10;99.90
33741;DHT22;20065;48.380;10.892;2022-09-17T08:37:04;10.50;99.90
33741;DHT22;20065;48.380;10.892;2022-09-17T08:39:50;10.80;99.90
33741;DHT22;20065;48.380;10.892;2022-09-17T08:42:57;10.90;99.90
33741;DHT22;20065;48.380;10.892;2022-09-17T08:45:51;11.20;99.90
33741;DHT22;20065;48.380;10.892;2022-09-17T08:49:03;11.40;99.90
33741;DHT22;20065;48.380;10.892;2022-09-17T08:52:07;11.20;99.90
33741;DHT22;20065;48.380;10.892;2022-09-17T08:58:30;11.00;99.90
33741;DHT22;20065;48.380;10.892;2022-09-17T09:07:17;11.40;99.90
33741;DHT22;20065;48.380;10.892;2022-09-17T09:13:00;10.80;99.90
33741;DHT22;20065;48.380;10.892;2022-09-17T09:15:53;10.50;99.90
33741;DHT22;20065;48.380;10.892;2022-09-17T09:18:40;10.60;99.90
33741;DHT22;20065;48.380;10.892;2022-09-17T09:21:29;10.70;99.90
33741;DHT22;20065;48.380;10.892;2022-09-17T09:24:23;10.60;99.90
33741;DHT22;20065;48.380;10.892;2022-09-17T09:27:26;10.70;99.90
33741;DHT22;20065;48.380;10.892;2022-09-17T09:30:14;10.90;99.90
33741;DHT22;20065;48.380;10.892;2022-09-17T09:33:11;11.00;99.90
33741;DHT22;20065;48.380;10.892;2022-09-17T09:35:59;10.80;99.90
33741;DHT22;20065;48.380;10.892;2022-09-17T09:39:02;10.60;99.90
33741;DHT22;20065;48.380;10.892;2022-09-17T09:41:54;10.70;99.90
33741;DHT22;20065;48.380;10.892;2022-09-17T09:44:44;10.70;99.90
33741;DHT22;20065;48.380;10.892;2022-09-17T09:50:54;10.60;99.90
33741;DHT22;20065;48.380;10.892;2022-09-17T09:56:57;10.70;99.90
33741;DHT22;20065;48.380;10.892;2022-09-17T09:59:45;10.50;99.90
33741;DHT22;20065;48.380;10.892;2022-09-17T10:02:32;10.50;99.90
33741;DHT22;20065;48.380;10.892;2022-09-17T10:05:20;10.40;99.90
33741;DHT22;20065;48.380;10.892;2022-09-17T10:08:12;10.40;99.90
33741;DHT22;20065;48.380;10.892;2022-09-17T10:11:08;10.30;99.90
33741;DHT22;20065;48.380;10.892;2022-09-17T10:14:25;10.40;99.90
33741;DHT22;20065;48.380;10.892;2022-09-17T10:17:22;10.40;99.90
33741;DHT22;20065;48.380;10.892;2022-09-17T10:20:15;10.50;99.90
33741;DHT22;20065;48.380;10.892;2022-09-17T10:23:05;10.20;99.90
33741;DHT22;20065;48.380;10.892;2022-09-17T10:25:53;10.60;99.90
33741;DHT22;20065;48.380;10.892;2022-09-17T10:28:49;10.70;99.90
33741;DHT22;20065;48.380;10.892;2022-09-17T10:31:51;10.60;99.90
33741;DHT22;20065;48.380;10.892;2022-09-17T10:34:40;10.70;99.90
33741;DHT22;20065;48.380;10.892;2022-09-17T10:37:49;10.70;99.90
33741;DHT22;20065;48.380;10.892;2022-09-17T10:40:37;10.60;99.90
33741;DHT22;20065;48.380;10.892;2022-09-17T10:43:25;10.80;99.90
33741;DHT22;20065;48.380;10.892;2022-09-17T10:46:25;10.40;99.90
33741;DHT22;20065;48.380;10.892;2022-09-17T10:52:33;10.50;99.90
33741;DHT22;20065;48.380;10.892;2022-09-17T10:58:34;10.90;99.90
33741;DHT22;20065;48.380;10.892;2022-09-17T11:08:21;11.70;99.90
33741;DHT22;20065;48.380;10.892;2022-09-17T11:18:01;11.70;99.90
33741;DHT22;20065;48.380;10.892;2022-09-17T11:21:23;11.50;99.90
33741;DHT22;20065;48.380;10.892;2022-09-17T11:24:36;11.70;99.90
33741;DHT22;20065;48.380;10.892;2022-09-17T11:37:33;12.00;99.90
33741;DHT22;20065;48.380;10.892;2022-09-17T11:40:31;12.70;99.90
33741;DHT22;20065;48.380;10.892;2022-09-17T11:46:16;11.80;99.90
33741;DHT22;20065;48.380;10.892;2022-09-17T11:52:37;12.20;99.90
33741;DHT22;20065;48.380;10.892;2022-09-17T12:01:43;13.10;99.90
33741;DHT22;20065;48.380;10.892;2022-09-17T12:11:41;13.70;99.90
33741;DHT22;20065;48.380;10.892;2022-09-17T12:14:56;13.00;99.90
33741;DHT22;20065;48.380;10.892;2022-09-17T12:18:16;13.80;99.90
33741;DHT22;20065;48.380;10.892;2022-09-17T12:21:07;14.30;99.90
33741;DHT22;20065;48.380;10.892;2022-09-17T12:33:15;12.80;99.90
33741;DHT22;20065;48.380;10.892;2022-09-17T12:36:36;12.80;99.90
33741;DHT22;20065;48.380;10.892;2022-09-17T12:52:03;12.20;99.90
33741;DHT22;20065;48.380;10.892;2022-09-17T13:01:20;12.60;99.90
33741;DHT22;20065;48.380;10.892;2022-09-17T13:13:46;13.90;99.90
33741;DHT22;20065;48.380;10.892;2022-09-17T13:20:25;13.80;99.90
33741;DHT22;20065;48.380;10.892;2022-09-17T13:23:12;14.40;99.90
33741;DHT22;20065;48.380;10.892;2022-09-17T13:25:58;14.20;99.90
33741;DHT22;20065;48.380;10.892;2022-09-17T13:28:51;14.10;99.90
33741;DHT22;20065;48.380;10.892;2022-09-17T13:34:28;13.40;99.90
33741;DHT22;20065;48.380;10.892;2022-09-17T13:37:19;13.00;99.90
33741;DHT22;20065;48.380;10.892;2022-09-17T13:40:21;12.20;99.90
33741;DHT22;20065;48.380;10.892;2022-09-17T13:43:09;12.10;99.90
33741;DHT22;20065;48.380;10.892;2022-09-17T13:48:47;12.70;99.90
33741;DHT22;20065;48.380;10.892;2022-09-17T13:54:35;12.60;99.90
33741;DHT22;20065;48.380;10.892;2022-09-17T13:57:22;12.30;99.90
33741;DHT22;20065;48.380;10.892;2022-09-17T14:09:48;12.30;99.90
33741;DHT22;20065;48.380;10.892;2022-09-17T14:21:31;11.90;99.90
33741;DHT22;20065;48.380;10.892;2022-09-17T14:30:28;11.40;99.90
33741;DHT22;20065;48.380;10.892;2022-09-17T14:33:25;11.00;99.90
33741;DHT22;20065;48.380;10.892;2022-09-17T14:36:19;11.20;99.90
33741;DHT22;20065;48.380;10.892;2022-09-17T14:39:21;11.20;99.90
33741;DHT22;20065;48.380;10.892;2022-09-17T14:42:36;11.00;99.90
33741;DHT22;20065;48.380;10.892;2022-09-17T14:45:30;11.20;99.90
33741;DHT22;20065;48.380;10.892;2022-09-17T14:48:31;11.30;99.90
33741;DHT22;20065;48.380;10.892;2022-09-17T14:59:51;11.40;99.90
33741;DHT22;20065;48.380;10.892;2022-09-17T15:02:40;11.30;99.90
33741;DHT22;20065;48.380;10.892;2022-09-17T15:08:23;11.10;99.90
33741;DHT22;20065;48.380;10.892;2022-09-17T15:11:10;11.00;99.90
33741;DHT22;20065;48.380;10.892;2022-09-17T15:13:57;11.00;99.90
33741;DHT22;20065;48.380;10.892;2022-09-17T15:16:54;11.00;99.90
33741;DHT22;20065;48.380;10.892;2022-09-17T15:19:50;10.50;99.90
33741;DHT22;20065;48.380;10.892;2022-09-17T15:22:39;9.90;99.90
33741;DHT22;20065;48.380;10.892;2022-09-17T15:25:28;9.60;99.90
33741;DHT22;20065;48.380;10.892;2022-09-17T15:28:37;9.50;99.90
33741;DHT22;20065;48.380;10.892;2022-09-17T15:31:24;9.50;99.90
33741;DHT22;20065;48.380;10.892;2022-09-17T15:34:13;9.50;99.90
33741;DHT22;20065;48.380;10.892;2022-09-17T15:39:51;9.60;99.90
33741;DHT22;20065;48.380;10.892;2022-09-17T15:42:39;9.50;99.90
33741;DHT22;20065;48.380;10.892;2022-09-17T15:45:33;9.50;99.90
33741;DHT22;20065;48.380;10.892;2022-09-17T15:48:34;9.30;99.90
33741;DHT22;20065;48.380;10.892;2022-09-17T15:51:24;9.30;99.90
33741;DHT22;20065;48.380;10.892;2022-09-17T15:54:28;9.20;99.90
33741;DHT22;20065;48.380;10.892;2022-09-17T15:57:14;9.20;99.90
33741;DHT22;20065;48.380;10.892;2022-09-17T16:00:10;9.20;99.90
33741;DHT22;20065;48.380;10.892;2022-09-17T16:03:16;9.20;99.90
33741;DHT22;20065;48.380;10.892;2022-09-17T16:09:37;9.30;99.90
33741;DHT22;20065;48.380;10.892;2022-09-17T16:12:25;9.40;99.90
33741;DHT22;20065;48.380;10.892;2022-09-17T16:15:12;9.40;99.90
33741;DHT22;20065;48.380;10.892;2022-09-17T16:17:58;9.50;99.90
33741;DHT22;20065;48.380;10.892;2022-09-17T16:20:44;9.20;99.90
33741;DHT22;20065;48.380;10.892;2022-09-17T16:23:30;9.40;99.90
33741;DHT22;20065;48.380;10.892;2022-09-17T16:26:18;9.40;99.90
33741;DHT22;20065;48.380;10.892;2022-09-17T16:29:10;9.50;99.90
33741;DHT22;20065;48.380;10.892;2022-09-17T16:31:58;9.50;99.90
33741;DHT22;20065;48.380;10.892;2022-09-17T16:34:45;9.40;99.90
33741;DHT22;20065;48.380;10.892;2022-09-17T16:37:31;9.30;99.90
33741;DHT22;20065;48.380;10.892;2022-09-17T16:40:18;9.40;99.90
33741;DHT22;20065;48.380;10.892;2022-09-17T16:43:05;9.40;99.90
33741;DHT22;20065;48.380;10.892;2022-09-17T16:45:58;9.40;99.90
33741;DHT22;20065;48.380;10.892;2022-09-17T16:48:48;9.50;99.90
33741;DHT22;20065;48.380;10.892;2022-09-17T16:51:34;9.50;99.90
33741;DHT22;20065;48.380;10.892;2022-09-17T16:54:20;9.50;99.90
33741;DHT22;20065;48.380;10.892;2022-09-17T16:57:09;9.50;99.90
33741;DHT22;20065;48.380;10.892;2022-09-17T16:59:56;9.40;99.90
33741;DHT22;20065;48.380;10.892;2022-09-17T17:02:43;9.40;99.90
33741;DHT22;20065;48.380;10.892;2022-09-17T17:05:30;9.40;99.90
33741;DHT22;20065;48.380;10.892;2022-09-17T17:08:20;9.20;99.90
33741;DHT22;20065;48.380;10.892;2022-09-17T17:11:07;9.30;99.90
33741;DHT22;20065;48.380;10.892;2022-09-17T17:13:54;9.20;99.90
33741;DHT22;20065;48.380;10.892;2022-09-17T17:16:43;9.10;99.90
33741;DHT22;20065;48.380;10.892;2022-09-17T17:19:30;9.10;99.90
33741;DHT22;20065;48.380;10.892;2022-09-17T17:22:16;9.10;99.90
33741;DHT22;20065;48.380;10.892;2022-09-17T17:25:03;9.10;99.90
33741;DHT22;20065;48.380;10.892;2022-09-17T17:27:50;9.00;99.90
33741;DHT22;20065;48.380;10.892;2022-09-17T17:30:36;9.10;99.90
33741;DHT22;20065;48.380;10.892;2022-09-17T17:33:23;8.90;99.90
33741;DHT22;20065;48.380;10.892;2022-09-17T17:36:09;8.90;99.90
33741;DHT22;20065;48.380;10.892;2022-09-17T17:38:57;8.90;99.90
33741;DHT22;20065;48.380;10.892;2022-09-17T17:41:43;9.00;99.90
33741;DHT22;20065;48.380;10.892;2022-09-17T17:44:29;9.00;99.90
33741;DHT22;20065;48.380;10.892;2022-09-17T17:47:16;9.00;99.90
33741;DHT22;20065;48.380;10.892;2022-09-17T17:50:02;9.00;99.90
33741;DHT22;20065;48.380;10.892;2022-09-17T17:52:49;9.00;99.90
33741;DHT22;20065;48.380;10.892;2022-09-17T17:55:35;9.10;99.90
33741;DHT22;20065;48.380;10.892;2022-09-17T17:58:21;8.80;99.90
33741;DHT22;20065;48.380;10.892;2022-09-17T18:01:17;8.80;99.90
33741;DHT22;20065;48.380;10.892;2022-09-17T18:04:05;8.90;99.90
33741;DHT22;20065;48.380;10.892;2022-09-17T18:06:54;8.90;99.90
33741;DHT22;20065;48.380;10.892;2022-09-17T18:09:40;8.90;99.90
33741;DHT22;20065;48.380;10.892;2022-09-17T18:12:26;8.90;99.90
33741;DHT22;20065;48.380;10.892;2022-09-17T18:15:12;8.30;99.90
33741;DHT22;20065;48.380;10.892;2022-09-17T18:17:59;9.00;99.90
33741;DHT22;20065;48.380;10.892;2022-09-17T18:20:45;8.80;99.90
33741;DHT22;20065;48.380;10.892;2022-09-17T18:23:34;8.80;99.90
33741;DHT22;20065;48.380;10.892;2022-09-17T18:26:22;9.00;99.90
33741;DHT22;20065;48.380;10.892;2022-09-17T18:29:08;9.00;99.90
33741;DHT22;20065;48.380;10.892;2022-09-17T18:31:56;8.90;99.90
33741;DHT22;20065;48.380;10.892;2022-09-17T18:34:42;8.90;99.90
33741;DHT22;20065;48.380;10.892;2022-09-17T18:37:28;8.90;99.90
33741;DHT22;20065;48.380;10.892;2022-09-17T18:40:15;9.00;99.90
33741;DHT22;20065;48.380;10.892;2022-09-17T18:43:01;9.00;99.90
33741;DHT22;20065;48.380;10.892;2022-09-17T18:45:54;8.90;99.90
33741;DHT22;20065;48.380;10.892;2022-09-17T18:48:41;9.00;99.90
33741;DHT22;20065;48.380;10.892;2022-09-17T18:51:30;9.00;99.90
33741;DHT22;20065;48.380;10.892;2022-09-17T18:54:16;9.00;99.90
33741;DHT22;20065;48.380;10.892;2022-09-17T18:57:03;9.00;99.90
33741;DHT22;20065;48.380;10.892;2022-09-17T18:59:49;8.90;99.90
33741;DHT22;20065;48.380;10.892;2022-09-17T19:02:35;9.10;99.90
33741;DHT22;20065;48.380;10.892;2022-09-17T19:05:21;9.00;99.90
33741;DHT22;20065;48.380;10.892;2022-09-17T19:08:08;9.00;99.90
33741;DHT22;20065;48.380;10.892;2022-09-17T19:10:54;9.00;99.90
33741;DHT22;20065;48.380;10.892;2022-09-17T19:13:43;9.00;99.90
33741;DHT22;20065;48.380;10.892;2022-09-17T19:16:29;9.10;99.90
33741;DHT22;20065;48.380;10.892;2022-09-17T19:19:15;9.10;99.90
33741;DHT22;20065;48.380;10.892;2022-09-17T19:22:02;9.90;99.90
33741;DHT22;20065;48.380;10.892;2022-09-17T19:24:48;9.20;99.90
33741;DHT22;20065;48.380;10.892;2022-09-17T19:27:34;9.50;99.90
33741;DHT22;20065;48.380;10.892;2022-09-17T19:30:21;9.10;99.90
33741;DHT22;20065;48.380;10.892;2022-09-17T19:33:07;9.00;99.90
33741;DHT22;20065;48.380;10.892;2022-09-17T19:35:58;8.90;99.90
33741;DHT22;20065;48.380;10.892;2022-09-17T19:38:45;8.70;99.90
33741;DHT22;20065;48.380;10.892;2022-09-17T19:41:31;8.60;99.90
33741;DHT22;20065;48.380;10.892;2022-09-17T19:44:20;8.50;99.90
33741;DHT22;20065;48.380;10.892;2022-09-17T19:47:08;8.60;99.90
33741;DHT22;20065;48.380;10.892;2022-09-17T19:49:54;8.60;99.90
33741;DHT22;20065;48.380;10.892;2022-09-17T19:52:41;8.50;99.90
33741;DHT22;20065;48.380;10.892;2022-09-17T19:55:27;8.50;99.90
33741;DHT22;20065;48.380;10.892;2022-09-17T19:58:13;8.60;99.90
33741;DHT22;20065;48.380;10.892;2022-09-17T20:01:00;8.60;99.90
33741;DHT22;20065;48.380;10.892;2022-09-17T20:03:46;8.70;99.90
33741;DHT22;20065;48.380;10.892;2022-09-17T20:06:34;8.70;99.90
33741;DHT22;20065;48.380;10.892;2022-09-17T20:09:20;8.70;99.90
33741;DHT22;20065;48.380;10.892;2022-09-17T20:12:06;8.70;99.90
33741;DHT22;20065;48.380;10.892;2022-09-17T20:14:52;8.70;99.90
33741;DHT22;20065;48.380;10.892;2022-09-17T20:17:38;8.70;99.90
33741;DHT22;20065;48.380;10.892;2022-09-17T20:20:25;8.60;99.90
33741;DHT22;20065;48.380;10.892;2022-09-17T20:23:13;8.60;99.90
33741;DHT22;20065;48.380;10.892;2022-09-17T20:25:59;8.60;99.90
33741;DHT22;20065;48.380;10.892;2022-09-17T20:28:47;8.60;99.90
33741;DHT22;20065;48.380;10.892;2022-09-17T20:31:34;8.50;99.90
33741;DHT22;20065;48.380;10.892;2022-09-17T20:34:20;8.70;99.90
33741;DHT22;20065;48.380;10.892;2022-09-17T20:37:06;8.60;99.90
33741;DHT22;20065;48.380;10.892;2022-09-17T20:39:52;8.60;99.90
33741;DHT22;20065;48.380;10.892;2022-09-17T20:42:39;8.40;99.90
33741;DHT22;20065;48.380;10.892;2022-09-17T20:45:25;8.50;99.90
33741;DHT22;20065;48.380;10.892;2022-09-17T20:48:11;8.30;99.90
33741;DHT22;20065;48.380;10.892;2022-09-17T20:50:59;8.20;99.90
33741;DHT22;20065;48.380;10.892;2022-09-17T20:53:45;8.10;99.90
33741;DHT22;20065;48.380;10.892;2022-09-17T20:56:33;8.10;99.90
33741;DHT22;20065;48.380;10.892;2022-09-17T20:59:19;8.00;99.90
33741;DHT22;20065;48.380;10.892;2022-09-17T21:02:09;8.00;99.90
33741;DHT22;20065;48.380;10.892;2022-09-17T21:04:56;7.80;99.90
33741;DHT22;20065;48.380;10.892;2022-09-17T21:07:42;7.80;99.90
33741;DHT22;20065;48.380;10.892;2022-09-17T21:10:28;7.70;99.90
33741;DHT22;20065;48.380;10.892;2022-09-17T21:13:14;7.70;99.90
33741;DHT22;20065;48.380;10.892;2022-09-17T21:16:00;7.60;99.90